»·PEaware :: SWA1686 KPHX-KAUS

SWA1686 :: KPHX-KAUS

FLIGHT INFORMATION

Flight Status: Arrived
Operator:
Southwest Airlines
More flights by this operator :: More flights under this callsign
Pilot: Drew L. (13237)
Aircraft: BOEING 737-800
(B738)
More flights by this aircraft type
Origin: KPHX Phoenix Sky Harbor Intl
United States
Destination: KAUS Austin Bergstrom Intl
United States
More flights between these airports :: More routes between these airports
Route: KATMN5 PHASE ELP J183 FUSCO DILLO LAIKS1
File this flight plan on PilotEdge
Remarks: PBN / A1B1C1D1S1S2 NAV / RNVD1E2A1 DAT / V DOF / 171009 REG / N652SW EET / KZHU0109 RMK / NRP SIMBRIEF
Altitude:
(Current/Filed)
37,000ft
Speed:
(Current/Filed)
452kts
Departed: 09-Oct-17 12:15 PM
Arrived: 09-Oct-17 02:07 PM
Distance/Time
Traveled:
756nm/1:51
Distance/Time
To Go:
Arrived

Flight Plot

Page will automatically refresh every two minutes.

Flight plan parsing failed; only flown route is shown


Map Options




Map Legend


Flown Route
Filed Route
Departure Airport
Arrival Airport
Navaid (VOR, NDB)
Fix

Horizontal Profiles

Position Reports

Time Latitude Longitude Heading Altitude Ground
Speed
09-Oct-17 11:52 33.434441 -111.993769 270 1142ft 0kts
09-Oct-17 11:53 33.434441 -111.993769 270 1142ft 0kts
09-Oct-17 11:54 33.434441 -111.993769 270 1142ft 0kts
09-Oct-17 11:55 33.434441 -111.993769 270 1142ft 0kts
09-Oct-17 11:56 33.434441 -111.993769 270 1142ft 0kts
09-Oct-17 11:57 33.434441 -111.993769 270 1142ft 0kts
09-Oct-17 11:58 33.434441 -111.993769 270 1142ft 0kts
09-Oct-17 11:59 33.434441 -111.993769 270 1142ft 0kts
09-Oct-17 12:00 33.434441 -111.993769 270 1142ft 0kts
09-Oct-17 12:01 33.434441 -111.993769 270 1142ft 0kts
09-Oct-17 12:02 33.434441 -111.993769 270 1142ft 0kts
09-Oct-17 12:03 33.434441 -111.993769 270 1142ft 0kts
09-Oct-17 12:04 33.434368 -111.993475 305 1142ft 2kts
09-Oct-17 12:05 33.434141 -111.993064 272 1142ft 0kts
09-Oct-17 12:06 33.434141 -111.993064 272 1142ft 0kts
09-Oct-17 12:07 33.434133 -111.993104 248 1142ft 0kts
09-Oct-17 12:08 33.433395 -111.993068 176 1142ft 0kts
09-Oct-17 12:09 33.432259 -111.993607 232 1142ft 8kts
09-Oct-17 12:10 33.432141 -111.997589 270 1142ft 0kts
09-Oct-17 12:11 33.432159 -112.003493 269 1142ft 27kts
09-Oct-17 12:12 33.432161 -112.010465 269 1142ft 20kts
09-Oct-17 12:13 33.432170 -112.018055 269 1142ft 18kts
09-Oct-17 12:14 33.432159 -112.023722 269 1142ft 15kts
09-Oct-17 12:15 33.432087 -112.026746 239 1142ft 2kts
09-Oct-17 12:16 33.431065 -112.026456 90 1142ft 0kts
09-Oct-17 12:17 33.431065 -112.026456 90 1142ft 0kts
09-Oct-17 12:18 33.431065 -112.026456 90 1142ft 0kts
09-Oct-17 12:19 33.430892 -112.002249 89 1346ft 161kts
09-Oct-17 12:20 33.432920 -111.944408 84 2839ft 210kts
09-Oct-17 12:21 33.428986 -111.863456 119 4326ft 283kts
09-Oct-17 12:22 33.373377 -111.797903 136 7529ft 278kts
09-Oct-17 12:23 33.315244 -111.732035 135 9811ft 307kts
09-Oct-17 12:24 33.248929 -111.654925 137 11432ft 356kts
09-Oct-17 12:25 33.176554 -111.571814 137 13884ft 369kts
09-Oct-17 12:26 33.107042 -111.491990 138 16203ft 388kts
09-Oct-17 12:27 33.041414 -111.396715 125 19157ft 406kts
09-Oct-17 12:28 32.978783 -111.282962 125 21994ft 422kts
09-Oct-17 12:29 32.913438 -111.164218 126 24381ft 440kts
09-Oct-17 12:30 32.845677 -111.041658 125 26571ft 456kts
09-Oct-17 12:31 32.776167 -110.915875 125 29025ft 456kts
09-Oct-17 12:32 32.706664 -110.790741 125 31081ft 458kts
09-Oct-17 12:33 32.642549 -110.661329 108 32951ft 459kts
09-Oct-17 12:34 32.609022 -110.517849 104 34790ft 452kts
09-Oct-17 12:35 32.577505 -110.375494 104 36283ft 448kts
09-Oct-17 12:36 32.546633 -110.235553 107 36939ft 442kts
09-Oct-17 12:37 32.514485 -110.093715 107 36963ft 446kts
09-Oct-17 12:38 32.484967 -109.963263 107 36969ft 447kts
09-Oct-17 12:39 32.452760 -109.821178 107 36969ft 447kts
09-Oct-17 12:40 32.427961 -109.676997 100 36973ft 450kts
09-Oct-17 12:41 32.409446 -109.531475 100 36973ft 450kts
09-Oct-17 12:42 32.390790 -109.385632 100 36972ft 450kts
09-Oct-17 12:43 32.372225 -109.241905 100 36964ft 450kts
09-Oct-17 12:44 32.350821 -109.098017 104 36967ft 450kts
09-Oct-17 12:45 32.325028 -108.954121 104 36967ft 450kts
09-Oct-17 12:46 32.299129 -108.810006 104 36969ft 450kts
09-Oct-17 12:47 32.273114 -108.666106 104 37025ft 451kts
09-Oct-17 12:48 32.246899 -108.522221 104 37027ft 451kts
09-Oct-17 12:49 32.220462 -108.377981 104 37028ft 451kts
09-Oct-17 12:50 32.194952 -108.239658 104 37018ft 451kts
09-Oct-17 12:51 32.168248 -108.095943 104 37019ft 451kts
09-Oct-17 12:52 32.141181 -107.951646 104 37022ft 454kts
09-Oct-17 12:53 32.114199 -107.807803 104 37022ft 451kts
09-Oct-17 12:54 32.086837 -107.663499 104 37024ft 452kts
09-Oct-17 12:55 32.059456 -107.519904 104 37026ft 452kts
09-Oct-17 12:56 32.031889 -107.376299 104 37028ft 452kts
09-Oct-17 12:57 32.004438 -107.234201 105 37018ft 452kts
09-Oct-17 12:59 31.976500 -107.090565 105 37019ft 452kts
09-Oct-17 13:00 31.948096 -106.945517 105 37048ft 467kts
09-Oct-17 13:01 31.918324 -106.794412 104 37054ft 488kts
09-Oct-17 13:02 31.887651 -106.639708 104 36997ft 500kts
09-Oct-17 13:03 31.855637 -106.479288 104 36979ft 508kts
09-Oct-17 13:04 31.823658 -106.320162 105 36966ft 508kts
09-Oct-17 13:05 31.801150 -106.157151 99 36998ft 509kts
09-Oct-17 13:06 31.781811 -105.993377 99 37021ft 509kts
09-Oct-17 13:07 31.762139 -105.829457 99 37023ft 509kts
09-Oct-17 13:08 31.742288 -105.665807 99 37025ft 509kts
09-Oct-17 13:09 31.722249 -105.502543 99 37027ft 509kts
09-Oct-17 13:10 31.702179 -105.340697 100 37026ft 508kts
09-Oct-17 13:11 31.681686 -105.177161 100 37019ft 508kts
09-Oct-17 13:12 31.661027 -105.014086 100 37021ft 508kts
09-Oct-17 13:13 31.640154 -104.850994 100 37023ft 508kts
09-Oct-17 13:14 31.619092 -104.688119 100 37025ft 508kts
09-Oct-17 13:15 31.597604 -104.523752 99 37047ft 522kts
09-Oct-17 13:16 31.575575 -104.356782 100 37029ft 520kts
09-Oct-17 13:17 31.553596 -104.191923 100 37019ft 520kts
09-Oct-17 13:18 31.531595 -104.028077 101 36876ft 495kts
09-Oct-17 13:19 31.511207 -103.878263 101 36899ft 466kts
09-Oct-17 13:20 31.490255 -103.726157 101 36936ft 483kts
09-Oct-17 13:20 31.472562 -103.597959 101 36917ft 480kts
09-Oct-17 13:21 31.453542 -103.445055 100 36889ft 467kts
09-Oct-17 13:23 31.432233 -103.271430 101 36908ft 468kts
09-Oct-17 13:24 31.413591 -103.121431 101 36912ft 468kts
09-Oct-17 13:24 31.397946 -102.996502 101 36912ft 468kts
09-Oct-17 13:26 31.375889 -102.822191 101 36914ft 467kts
09-Oct-17 13:26 31.360046 -102.698063 101 36970ft 467kts
09-Oct-17 13:27 31.340811 -102.548799 101 36971ft 467kts
09-Oct-17 13:28 31.321438 -102.399742 101 36972ft 466kts
09-Oct-17 13:29 31.302029 -102.251859 101 36964ft 465kts
09-Oct-17 13:30 31.282528 -102.103804 102 36934ft 461kts
09-Oct-17 13:31 31.262694 -101.956171 102 36940ft 463kts
09-Oct-17 13:32 31.242798 -101.808619 102 36940ft 462kts
09-Oct-17 13:33 31.222770 -101.661464 102 36929ft 469kts
09-Oct-17 13:34 31.201752 -101.508482 102 36936ft 486kts
09-Oct-17 13:35 31.180406 -101.354155 102 36919ft 485kts
09-Oct-17 13:36 31.158970 -101.200677 102 36910ft 484kts
09-Oct-17 13:37 31.137358 -101.047535 102 36857ft 483kts
09-Oct-17 13:38 31.116234 -100.898322 103 36847ft 461kts
09-Oct-17 13:39 31.094845 -100.749930 103 36855ft 466kts
09-Oct-17 13:40 31.073403 -100.601736 103 36858ft 467kts
09-Oct-17 13:41 31.051760 -100.453332 103 36860ft 467kts
09-Oct-17 13:42 31.030215 -100.306876 103 36853ft 466kts
09-Oct-17 13:43 31.008308 -100.159195 103 36855ft 466kts
09-Oct-17 13:44 30.986193 -100.011268 103 36827ft 466kts
09-Oct-17 13:45 30.963894 -99.863299 103 36829ft 466kts
09-Oct-17 13:46 30.941436 -99.715465 103 36829ft 466kts
09-Oct-17 13:47 30.918345 -99.566878 102 35218ft 468kts
09-Oct-17 13:48 30.896712 -99.425980 101 33246ft 480kts
09-Oct-17 13:49 30.875120 -99.285673 101 31342ft 481kts
09-Oct-17 13:50 30.851205 -99.133097 101 29264ft 486kts
09-Oct-17 13:51 30.826871 -98.979126 101 27172ft 488kts
09-Oct-17 13:52 30.802284 -98.824777 101 25079ft 491kts
09-Oct-17 13:53 30.783918 -98.668452 97 22966ft 492kts
09-Oct-17 13:54 30.768497 -98.519649 98 20717ft 440kts
09-Oct-17 13:55 30.742331 -98.390432 114 18370ft 394kts
09-Oct-17 13:56 30.700164 -98.282434 115 16146ft 373kts
09-Oct-17 13:57 30.653769 -98.165286 115 14329ft 397kts
09-Oct-17 13:58 30.607903 -98.049774 114 12200ft 390kts
09-Oct-17 13:59 30.561748 -97.940114 128 10042ft 377kts
09-Oct-17 14:00 30.485634 -97.858491 122 9996ft 378kts
09-Oct-17 14:01 30.471662 -97.748410 85 9781ft 316kts
09-Oct-17 14:02 30.455131 -97.672313 129 9226ft 247kts
09-Oct-17 14:03 30.398476 -97.661083 186 8489ft 194kts
09-Oct-17 14:04 30.349008 -97.661704 180 7153ft 175kts
09-Oct-17 14:05 30.327908 -97.625627 59 5493ft 192kts
09-Oct-17 14:06 30.362062 -97.642891 245 4103ft 179kts
09-Oct-17 14:07 30.322140 -97.660547 178 2985ft 157kts
09-Oct-17 14:08 30.282556 -97.659966 176 2037ft 129kts
09-Oct-17 14:09 30.246751 -97.659006 177 1447ft 133kts
09-Oct-17 14:10 30.210213 -97.658053 176 706ft 130kts
09-Oct-17 14:11 30.190523 -97.657566 179 549ft 5kts
09-Oct-17 14:12 30.188696 -97.658735 356 549ft 15kts
09-Oct-17 14:13 30.195401 -97.658906 359 549ft 23kts
09-Oct-17 14:14 30.199191 -97.660390 275 549ft 13kts
09-Oct-17 14:15 30.199077 -97.666134 267 549ft 11kts
09-Oct-17 14:16 30.200414 -97.666768 15 549ft 5kts
09-Oct-17 14:17 30.201244 -97.666728 356 549ft 0kts
09-Oct-17 14:18 30.201244 -97.666728 356 549ft 0kts

Navigation Log

Ident Type
Flight plan parsing failed, navigation log unavailable